Disclaimer

Please do not use the information listed here in-flight or in-navigation, as they are not provided to us by the airports but are provided by volunteers, so they might be outdated.

Search


Regions


Airport information page

Radio informations:
Tower (TWR) - 124.25 MHz
Automatic Terminal Information Service (ATIS) - 128.625 MHz
Approach (APP) - 119.35 MHz

Airport informations:
Latitude: 52° 40' 33.00" N
Longitude: 001° 16' 58.00" E
Elevation: 117 feet - 36 meters
Operating hours: Remarks
Operating agency: Civil government, landing fees and diplomatic clearance may be required
Timezone: UTC 0(+1DT) - Last Sunday in March to last Sunday in October
Fuel: Jet A1, without icing nhibitor.

100/130 MIL Spec, low lead, aviation gasoline (BLUE)

Runway information:
04/22 - 4154 x 148 feet< - >1266 x 45 meters
09/27 - 6040 x 148 feet< - >1841 x 45 meters

Recent METARs:
EGSH 202220Z AUTO 09006KT 9999 BKN022/// OVC028/// 05/03 Q1006
EGSH 202250Z AUTO 07006KT 9999 -RA SCT025/// BKN031/// BKN037/// 05/03 Q1006
EGSH 202320Z AUTO 07006KT 9999 SCT031/// OVC036/// 05/03 Q1006

Airport on the map: